createdAt,value
2022-09-23T00:02:16.963Z,2.47
2022-09-23T00:04:49.079Z,3.30
2022-09-23T00:07:21.714Z,2.42
2022-09-23T00:09:55.340Z,2.90
2022-09-23T00:12:28.652Z,2.78
2022-09-23T00:15:00.628Z,3.00
2022-09-23T00:17:32.835Z,3.08
2022-09-23T00:20:05.659Z,2.78
2022-09-23T00:22:38.457Z,3.30
2022-09-23T00:25:11.480Z,2.95
2022-09-23T00:27:44.806Z,2.30
2022-09-23T00:30:18.505Z,2.50
2022-09-23T00:32:52.644Z,2.67
2022-09-23T00:35:24.643Z,2.70
2022-09-23T00:37:56.601Z,2.72
2022-09-23T00:40:28.632Z,2.33
2022-09-23T00:43:02.491Z,2.90
2022-09-23T00:45:35.131Z,2.63
2022-09-23T00:48:17.070Z,2.35
2022-09-23T00:50:53.549Z,2.63
2022-09-23T00:53:26.803Z,2.63
2022-09-23T00:56:04.538Z,2.65
2022-09-23T00:58:41.060Z,1.83
2022-09-23T01:01:14.477Z,2.78
2022-09-23T01:03:46.671Z,2.90
2022-09-23T01:06:18.628Z,1.95
2022-09-23T01:08:51.533Z,2.17
2022-09-23T01:11:36.316Z,2.55
2022-09-23T01:14:21.872Z,3.00
2022-09-23T01:17:03.388Z,2.63
2022-09-23T01:19:58.562Z,2.70
2022-09-23T01:22:38.917Z,2.45
2022-09-23T01:28:13.602Z,2.58
2022-09-23T01:30:54.312Z,2.10
2022-09-23T01:33:35.374Z,2.10
2022-09-23T01:36:15.698Z,2.45
2022-09-23T01:41:51.580Z,2.65
2022-09-23T01:44:31.623Z,2.35
2022-09-23T01:47:11.093Z,2.10
2022-09-23T01:49:53.317Z,2.60
2022-09-23T01:52:30.455Z,2.58
2022-09-23T01:55:10.365Z,3.13
2022-09-23T01:57:47.243Z,3.42
2022-09-23T02:00:22.543Z,2.58
2022-09-23T02:03:01.967Z,2.45
2022-09-23T02:05:39.564Z,2.57
2022-09-23T02:08:17.713Z,3.20
2022-09-23T02:10:56.168Z,6.45
2022-09-23T02:13:32.683Z,7.63
2022-09-23T02:16:10.981Z,6.22
2022-09-23T02:18:51.252Z,3.53
2022-09-23T02:21:27.525Z,2.45
2022-09-23T02:24:04.575Z,2.28
2022-09-23T02:26:41.210Z,1.92
2022-09-23T02:29:20.790Z,2.20
2022-09-23T02:32:00.273Z,2.35
2022-09-23T02:34:43.016Z,5.83
2022-09-23T02:37:25.687Z,4.18
2022-09-23T02:40:03.018Z,3.25
2022-09-23T02:42:52.888Z,3.28
2022-09-23T02:45:25.066Z,2.60
2022-09-23T02:48:04.173Z,2.40
2022-09-23T02:50:38.934Z,2.40
2022-09-23T02:53:11.202Z,2.47
2022-09-23T02:55:43.254Z,3.03
2022-09-23T02:58:15.246Z,2.22
2022-09-23T03:01:13.231Z,2.53
2022-09-23T03:03:49.556Z,2.33
2022-09-23T03:06:29.657Z,2.67
2022-09-23T03:09:09.086Z,3.15
2022-09-23T03:11:48.572Z,2.20
2022-09-23T03:14:29.010Z,2.10
2022-09-23T03:19:42.343Z,2.85
2022-09-23T03:22:21.367Z,2.42
2022-09-23T03:24:58.652Z,2.28
2022-09-23T03:27:34.572Z,2.90
2022-09-23T03:30:08.672Z,2.35
2022-09-23T03:32:44.404Z,4.05
2022-09-23T03:35:16.667Z,2.83
2022-09-23T03:37:56.718Z,3.08
2022-09-23T03:40:32.756Z,4.25
2022-09-23T03:43:05.133Z,3.05
2022-09-23T03:45:37.194Z,3.30
2022-09-23T03:48:09.202Z,5.13
2022-09-23T03:50:41.384Z,4.00
2022-09-23T03:53:14.951Z,4.05
2022-09-23T03:55:48.310Z,3.95
2022-09-23T03:58:20.212Z,3.53
2022-09-23T04:00:54.797Z,3.60
2022-09-23T04:03:28.163Z,3.70
2022-09-23T04:06:00.111Z,4.03
2022-09-23T04:08:33.673Z,3.70
2022-09-23T04:11:06.052Z,3.88
2022-09-23T04:13:38.078Z,6.50
2022-09-23T04:16:10.071Z,5.32
2022-09-23T04:18:42.159Z,4.97
2022-09-23T04:21:14.192Z,6.35
2022-09-23T04:23:47.574Z,5.50
2022-09-23T04:26:19.541Z,5.68
2022-09-23T04:28:51.530Z,6.05
2022-09-23T04:31:23.964Z,6.05
2022-09-23T04:33:56.486Z,6.00
2022-09-23T04:36:30.346Z,6.72
2022-09-23T04:39:04.515Z,5.47
2022-09-23T04:41:36.658Z,4.55
2022-09-23T04:44:08.646Z,5.35
2022-09-23T04:46:41.495Z,3.85
2022-09-23T04:49:14.137Z,4.20
2022-09-23T04:51:46.043Z,3.50
2022-09-23T04:54:19.434Z,3.75
2022-09-23T04:56:51.506Z,4.13
2022-09-23T04:59:24.432Z,3.22
2022-09-23T05:01:56.470Z,3.90
2022-09-23T05:04:29.006Z,3.85
2022-09-23T05:07:03.507Z,3.38
2022-09-23T05:09:37.052Z,3.78
2022-09-23T05:12:09.056Z,4.20
2022-09-23T05:14:40.998Z,3.92
2022-09-23T05:17:12.980Z,3.72
2022-09-23T05:19:45.209Z,3.47
2022-09-23T05:22:17.109Z,3.38
2022-09-23T05:24:50.509Z,4.38
2022-09-23T05:27:22.481Z,3.83
2022-09-23T05:29:54.626Z,3.95
2022-09-23T05:32:26.564Z,6.22
2022-09-23T05:34:58.554Z,3.97
2022-09-23T05:37:33.125Z,4.22
2022-09-23T05:40:07.205Z,4.15
2022-09-23T05:42:40.077Z,4.45
2022-09-23T05:45:12.029Z,4.65
2022-09-23T05:47:44.272Z,4.03
2022-09-23T05:50:16.488Z,4.10
2022-09-23T05:52:48.434Z,4.75
2022-09-23T05:55:21.782Z,4.32
2022-09-23T05:57:53.794Z,5.25
2022-09-23T06:00:26.197Z,4.13
2022-09-23T06:02:58.268Z,4.00
2022-09-23T06:05:31.142Z,4.05
2022-09-23T06:08:03.144Z,3.80
2022-09-23T06:10:38.467Z,3.33
2022-09-23T06:13:11.197Z,3.80
2022-09-23T06:15:46.322Z,19.00
2022-09-23T06:18:18.450Z,4.63
2022-09-23T06:20:50.422Z,3.35
2022-09-23T06:23:25.467Z,5.20
2022-09-23T06:26:04.396Z,3.47
2022-09-23T06:28:38.315Z,4.03
2022-09-23T06:31:14.052Z,4.45
2022-09-23T06:33:46.336Z,4.75
2022-09-23T06:36:34.891Z,5.22
2022-09-23T06:39:09.594Z,4.35
2022-09-23T06:41:43.345Z,4.82
2022-09-23T06:44:18.108Z,5.32
2022-09-23T06:46:50.955Z,64.88
2022-09-23T06:49:22.890Z,21.38
2022-09-23T06:51:56.204Z,5.72
2022-09-23T06:54:29.046Z,4.72
2022-09-23T06:57:02.519Z,4.18
2022-09-23T06:59:34.464Z,3.92
2022-09-23T07:02:07.167Z,4.60
2022-09-23T07:04:39.244Z,4.20
2022-09-23T07:07:11.569Z,7.68
2022-09-23T07:09:43.522Z,4.63
2022-09-23T07:12:16.968Z,3.90
2022-09-23T07:14:48.857Z,3.78
2022-09-23T07:17:20.862Z,5.10
2022-09-23T07:19:54.996Z,4.85
2022-09-23T07:22:27.300Z,4.35
2022-09-23T07:24:59.357Z,3.50
2022-09-23T07:27:33.457Z,4.10
2022-09-23T07:30:07.977Z,2.88
2022-09-23T07:32:48.405Z,2.45
2022-09-23T07:35:21.122Z,3.00
2022-09-23T07:37:53.102Z,3.05
2022-09-23T07:40:25.315Z,3.63
2022-09-23T07:42:59.641Z,2.78
2022-09-23T07:45:34.756Z,2.03
2022-09-23T07:48:06.769Z,1.63
2022-09-23T07:50:39.936Z,1.50
2022-09-23T07:53:13.652Z,10.25
2022-09-23T07:55:52.194Z,1.60
2022-09-23T07:58:26.267Z,1.20
2022-09-23T08:01:02.111Z,1.65
2022-09-23T08:03:35.114Z,1.00
2022-09-23T08:06:08.670Z,0.95
2022-09-23T08:08:43.822Z,1.20
2022-09-23T08:11:15.877Z,1.00
2022-09-23T08:13:49.199Z,1.00
2022-09-23T08:16:22.092Z,0.90
2022-09-23T08:18:54.154Z,4.43
2022-09-23T08:21:26.157Z,2.78
2022-09-23T08:23:58.139Z,2.95
2022-09-23T08:26:30.492Z,3.65
2022-09-23T08:29:04.502Z,9.00
2022-09-23T08:31:36.643Z,7.60
2022-09-23T08:34:09.263Z,1.10
2022-09-23T08:36:41.257Z,1.17
2022-09-23T08:39:15.417Z,1.10
2022-09-23T08:41:59.291Z,0.93
2022-09-23T08:44:43.532Z,1.50
2022-09-23T08:47:21.121Z,2.00
2022-09-23T08:50:01.638Z,17.55
2022-09-23T08:52:39.569Z,1.88
2022-09-23T08:55:13.341Z,1.08
2022-09-23T08:58:24.867Z,0.90
2022-09-23T09:01:03.718Z,0.95
2022-09-23T09:03:40.546Z,7.28
2022-09-23T09:06:17.953Z,3.20
2022-09-23T09:08:55.479Z,4.75
2022-09-23T09:11:33.444Z,4.00
2022-09-23T09:14:17.066Z,11.10
2022-09-23T09:17:00.622Z,9.38
2022-09-23T09:19:52.178Z,6.60
2022-09-23T09:22:43.088Z,5.03
2022-09-23T09:25:36.408Z,1.00
2022-09-23T09:28:17.440Z,1.20
2022-09-23T09:30:54.342Z,0.57
2022-09-23T09:33:36.264Z,0.50
2022-09-23T09:36:18.077Z,0.50
2022-09-23T09:38:51.268Z,2.95
2022-09-23T09:41:27.522Z,1.40
2022-09-23T09:44:03.669Z,0.80
2022-09-23T09:47:01.343Z,0.70
2022-09-23T09:49:43.660Z,0.80
2022-09-23T09:52:29.590Z,0.65
2022-09-23T09:55:24.443Z,0.70
2022-09-23T09:58:05.896Z,0.93
2022-09-23T10:00:43.067Z,0.88
2022-09-23T10:03:34.213Z,1.10
2022-09-23T10:06:20.741Z,3.60
2022-09-23T10:09:14.025Z,1.00
2022-09-23T10:12:10.821Z,1.55
2022-09-23T10:14:42.954Z,0.98
2022-09-23T10:17:19.350Z,1.60
2022-09-23T10:20:00.277Z,0.80
2022-09-23T10:22:36.414Z,0.90
2022-09-23T10:25:16.450Z,0.63
2022-09-23T10:27:48.388Z,0.88
2022-09-23T10:30:22.818Z,0.70
2022-09-23T10:32:57.081Z,0.68
2022-09-23T10:35:32.082Z,0.95
2022-09-23T10:38:05.539Z,1.10
2022-09-23T10:45:18.839Z,2.90
2022-09-23T10:48:00.512Z,1.65
2022-09-23T10:50:39.729Z,2.50
2022-09-23T10:53:23.324Z,1.35
2022-09-23T10:56:15.892Z,1.70
2022-09-23T10:59:21.023Z,1.08
2022-09-23T11:02:08.346Z,2.40
2022-09-23T11:04:57.374Z,1.30
2022-09-23T11:07:37.193Z,1.20
2022-09-23T11:10:45.847Z,0.85
2022-09-23T11:16:14.293Z,0.85
2022-09-23T11:19:12.292Z,0.82
2022-09-23T11:22:03.609Z,1.23
2022-09-23T11:24:58.500Z,1.30
2022-09-23T11:27:42.220Z,1.48
2022-09-23T11:30:18.124Z,0.70
2022-09-23T11:33:16.406Z,0.80
2022-09-23T11:35:50.658Z,1.33
2022-09-23T11:38:28.141Z,0.85
2022-09-23T11:41:03.863Z,1.02
2022-09-23T11:43:41.252Z,0.85
2022-09-23T11:46:25.547Z,0.60
2022-09-23T11:49:03.174Z,1.05
2022-09-23T11:51:41.382Z,0.80
2022-09-23T11:54:20.754Z,1.00
2022-09-23T11:56:58.867Z,0.70
2022-09-23T11:59:41.157Z,0.90
2022-09-23T12:02:23.743Z,1.00
2022-09-23T12:05:02.909Z,1.02
2022-09-23T12:07:46.885Z,1.23
2022-09-23T12:10:19.189Z,0.70
2022-09-23T12:12:58.428Z,0.90
2022-09-23T12:15:44.261Z,0.90
2022-09-23T12:18:37.189Z,0.95
2022-09-23T12:21:51.043Z,1.05
2022-09-23T12:24:41.031Z,1.10
2022-09-23T12:27:24.320Z,0.97
2022-09-23T12:30:00.080Z,1.27
2022-09-23T12:32:34.119Z,1.08
2022-09-23T12:35:07.821Z,1.13
2022-09-23T12:37:39.802Z,1.38
2022-09-23T12:40:21.632Z,1.05
2022-09-23T12:42:53.883Z,0.90
2022-09-23T12:45:43.794Z,1.70
2022-09-23T12:48:59.037Z,1.10
2022-09-23T12:51:31.929Z,0.60
2022-09-23T12:54:23.370Z,0.68
2022-09-23T12:57:09.276Z,1.02
2022-09-23T13:00:12.113Z,0.80
2022-09-23T13:03:13.096Z,0.60
2022-09-23T13:06:09.223Z,0.82
2022-09-23T13:08:42.957Z,0.50
2022-09-23T13:11:22.063Z,0.80
2022-09-23T13:13:56.405Z,0.70
2022-09-23T13:16:33.009Z,0.60
2022-09-23T13:19:06.844Z,0.73
2022-09-23T13:22:03.958Z,1.00
2022-09-23T13:24:47.053Z,1.20
2022-09-23T13:27:26.860Z,0.73
2022-09-23T13:30:05.247Z,1.05
2022-09-23T13:32:44.862Z,1.00
2022-09-23T13:35:24.635Z,0.80
2022-09-23T13:37:58.111Z,0.88
2022-09-23T13:40:31.154Z,0.80
2022-09-23T13:43:05.672Z,1.13
2022-09-23T13:45:40.131Z,1.08
2022-09-23T13:48:15.409Z,0.85
2022-09-23T13:50:49.471Z,0.80
2022-09-23T13:53:26.510Z,1.10
2022-09-23T13:56:03.615Z,1.23
2022-09-23T13:58:36.447Z,1.20
2022-09-23T14:01:09.144Z,1.30
2022-09-23T14:03:41.202Z,1.05
2022-09-23T14:06:16.428Z,1.30
2022-09-23T14:08:50.846Z,1.08
2022-09-23T14:11:32.295Z,1.13
2022-09-23T14:14:08.019Z,0.93
2022-09-23T14:16:41.911Z,1.00
2022-09-23T14:19:17.665Z,0.80
2022-09-23T14:21:51.616Z,0.80
2022-09-23T14:24:32.209Z,0.80
2022-09-23T14:27:12.795Z,0.88
2022-09-23T14:29:47.981Z,0.98
2022-09-23T14:32:22.541Z,0.95
2022-09-23T14:35:08.310Z,0.98
2022-09-23T14:38:01.996Z,1.05
2022-09-23T14:40:38.139Z,0.73
2022-09-23T14:43:17.139Z,1.30
2022-09-23T14:45:52.598Z,1.00
2022-09-23T14:48:26.927Z,0.80
2022-09-23T14:51:01.016Z,0.95
2022-09-23T14:53:38.505Z,0.93
2022-09-23T14:56:21.389Z,1.00
2022-09-23T14:58:55.605Z,1.38
2022-09-23T15:01:34.791Z,1.00
2022-09-23T15:04:27.678Z,1.23
2022-09-23T15:07:04.351Z,1.08
2022-09-23T15:09:39.770Z,1.45
2022-09-23T15:12:15.300Z,1.23
2022-09-23T15:14:52.038Z,2.20
2022-09-23T15:17:30.670Z,1.65
2022-09-23T15:20:05.707Z,1.40
2022-09-23T15:22:44.236Z,2.78
2022-09-23T15:25:18.866Z,1.45
2022-09-23T15:28:04.287Z,1.25
2022-09-23T15:30:38.209Z,1.40
2022-09-23T15:33:12.606Z,1.67
2022-09-23T15:35:48.504Z,1.52
2022-09-23T15:38:21.568Z,1.30
2022-09-23T15:40:54.262Z,1.30
2022-09-23T15:43:27.729Z,1.42
2022-09-23T15:46:06.301Z,1.20
2022-09-23T15:48:43.455Z,1.42
2022-09-23T15:51:15.872Z,1.50
2022-09-23T15:53:47.993Z,1.73
2022-09-23T15:56:19.976Z,1.80
2022-09-23T15:58:53.350Z,2.28
2022-09-23T16:01:28.786Z,2.50
2022-09-23T16:04:01.587Z,2.00
2022-09-23T16:06:35.371Z,2.25
2022-09-23T16:09:07.434Z,2.20
2022-09-23T16:11:40.491Z,2.47
2022-09-23T16:14:16.220Z,2.30
2022-09-23T16:16:48.256Z,2.70
2022-09-23T16:19:20.317Z,2.38
2022-09-23T16:21:52.312Z,2.70
2022-09-23T16:24:28.041Z,2.05
2022-09-23T16:27:04.795Z,2.47
2022-09-23T16:29:38.177Z,2.00
2022-09-23T16:32:10.283Z,2.08
2022-09-23T16:34:42.362Z,2.20
2022-09-23T16:37:21.441Z,2.58
2022-09-23T16:39:53.363Z,2.00
2022-09-23T16:42:25.307Z,2.10
2022-09-23T16:44:58.672Z,2.85
2022-09-23T16:47:31.294Z,2.10
2022-09-23T16:50:03.605Z,2.42
2022-09-23T16:52:35.587Z,2.83
2022-09-23T16:55:08.799Z,3.97
2022-09-23T16:57:41.319Z,3.45
2022-09-23T17:00:34.964Z,2.40
2022-09-23T17:03:25.782Z,3.03
2022-09-23T17:05:58.251Z,2.67
2022-09-23T17:08:30.261Z,4.30
2022-09-23T17:11:03.096Z,12.52
2022-09-23T17:13:35.242Z,5.70
2022-09-23T17:16:09.375Z,5.78
2022-09-23T17:18:41.349Z,4.95
2022-09-23T17:21:13.280Z,4.40
2022-09-23T17:23:45.271Z,5.47
2022-09-23T17:26:17.207Z,5.47
2022-09-23T17:28:49.885Z,6.88
2022-09-23T17:31:24.752Z,5.85
2022-09-23T17:33:56.745Z,8.18
2022-09-23T17:36:28.765Z,6.40
2022-09-23T17:39:00.801Z,6.35
2022-09-23T17:41:32.775Z,8.75
2022-09-23T17:44:05.147Z,7.18
2022-09-23T17:46:38.654Z,7.10
2022-09-23T17:49:11.365Z,6.63
2022-09-23T17:51:43.339Z,6.65
2022-09-23T17:54:15.387Z,8.07
2022-09-23T17:56:47.367Z,8.15
2022-09-23T17:59:19.302Z,6.90
2022-09-23T18:01:53.051Z,8.25
2022-09-23T18:04:25.088Z,12.43
2022-09-23T18:06:57.035Z,12.57
2022-09-23T18:09:29.041Z,11.23
2022-09-23T18:12:01.076Z,8.95
2022-09-23T18:14:33.101Z,9.57
2022-09-23T18:17:06.831Z,9.63
2022-09-23T18:19:38.997Z,8.50
2022-09-23T18:22:10.933Z,8.93
2022-09-23T18:24:42.962Z,9.02
2022-09-23T18:27:14.880Z,8.50
2022-09-23T18:29:46.916Z,9.80
2022-09-23T18:32:20.286Z,8.98
2022-09-23T18:34:52.286Z,8.05
2022-09-23T18:37:24.214Z,7.97
2022-09-23T18:39:56.156Z,9.27
2022-09-23T18:42:29.700Z,8.82
2022-09-23T18:45:01.697Z,12.32
2022-09-23T18:47:53.620Z,10.43
2022-09-23T18:50:40.749Z,10.43
2022-09-23T18:53:12.664Z,10.90
2022-09-23T18:55:45.301Z,10.07
2022-09-23T18:58:17.445Z,10.10
2022-09-23T19:00:51.010Z,11.02
2022-09-23T19:03:24.399Z,9.63
2022-09-23T19:06:01.621Z,10.88
2022-09-23T19:08:34.653Z,9.73
2022-09-23T19:11:08.538Z,11.00
2022-09-23T19:13:40.809Z,10.98
2022-09-23T19:16:14.411Z,9.88
2022-09-23T19:18:48.639Z,9.40
2022-09-23T19:21:22.524Z,10.73
2022-09-23T19:23:56.160Z,10.88
2022-09-23T19:26:31.218Z,10.20
2022-09-23T19:29:04.479Z,12.75
2022-09-23T19:31:41.838Z,12.55
2022-09-23T19:34:16.609Z,13.20
2022-09-23T19:36:48.578Z,12.98
2022-09-23T19:39:22.523Z,13.27
2022-09-23T19:41:58.785Z,12.77
2022-09-23T19:44:30.728Z,10.45
2022-09-23T19:47:02.783Z,15.50
2022-09-23T19:49:36.395Z,11.93
2022-09-23T19:52:08.351Z,11.18
2022-09-23T19:54:40.270Z,10.27
2022-09-23T19:57:12.283Z,12.32
2022-09-23T19:59:45.023Z,12.48
2022-09-23T20:02:17.067Z,12.23
2022-09-23T20:04:51.433Z,11.07
2022-09-23T20:07:23.447Z,11.23
2022-09-23T20:09:55.889Z,13.40
2022-09-23T20:12:28.316Z,12.40
2022-09-23T20:15:00.754Z,11.38
2022-09-23T20:17:33.038Z,10.50
2022-09-23T20:20:07.588Z,11.23
2022-09-23T20:22:39.571Z,10.65
2022-09-23T20:25:14.239Z,9.43
2022-09-23T20:27:49.536Z,10.38
2022-09-23T20:30:21.526Z,10.77
2022-09-23T20:32:53.476Z,10.88
2022-09-23T20:35:29.813Z,9.15
2022-09-23T20:38:04.875Z,9.38
2022-09-23T20:40:39.917Z,9.55
2022-09-23T20:43:16.124Z,8.63
2022-09-23T20:45:50.232Z,8.77
2022-09-23T20:48:23.707Z,8.32
2022-09-23T20:51:01.269Z,8.40
2022-09-23T20:53:35.049Z,8.90
2022-09-23T20:56:07.020Z,8.88
2022-09-23T20:58:39.147Z,8.55
2022-09-23T21:01:11.842Z,8.98
2022-09-23T21:03:45.922Z,8.85
2022-09-23T21:06:19.631Z,8.82
2022-09-23T21:08:53.214Z,8.13
2022-09-23T21:11:26.144Z,8.65
2022-09-23T21:14:00.482Z,8.45
2022-09-23T21:16:32.524Z,8.45
2022-09-23T21:19:07.470Z,9.00
2022-09-23T21:21:40.811Z,8.77
2022-09-23T21:24:43.783Z,9.10
2022-09-23T21:27:04.741Z,10.60
2022-09-23T21:29:36.741Z,8.27
2022-09-23T21:32:08.790Z,7.82
2022-09-23T21:34:40.749Z,8.40
2022-09-23T21:37:14.141Z,8.30
2022-09-23T21:40:06.098Z,8.60
2022-09-23T21:42:38.086Z,10.65
2022-09-23T21:45:11.101Z,12.05
2022-09-23T21:47:43.041Z,12.65
2022-09-23T21:50:15.129Z,13.48
2022-09-23T21:52:50.457Z,15.93
2022-09-23T21:55:22.459Z,13.90
2022-09-23T21:57:54.437Z,17.58
2022-09-23T22:00:26.398Z,15.43
2022-09-23T22:02:58.324Z,14.90
2022-09-23T22:05:30.275Z,13.32
2022-09-23T22:08:03.705Z,12.57
2022-09-23T22:10:36.335Z,10.60
2022-09-23T22:13:12.784Z,10.80
2022-09-23T22:15:45.115Z,11.57
2022-09-23T22:18:19.296Z,11.75
2022-09-23T22:20:51.258Z,12.68
2022-09-23T22:23:25.029Z,10.57
2022-09-23T22:26:02.994Z,10.10
2022-09-23T22:28:54.129Z,10.15
2022-09-23T22:31:44.687Z,8.80
2022-09-23T22:34:37.608Z,10.13
2022-09-23T22:37:08.563Z,8.63
2022-09-23T22:39:41.951Z,10.35
2022-09-23T22:42:14.511Z,9.85
2022-09-23T22:44:46.612Z,9.98
2022-09-23T22:47:18.840Z,9.88
2022-09-23T22:49:54.526Z,10.32
2022-09-23T22:52:26.474Z,10.50
2022-09-23T22:54:59.990Z,10.52
2022-09-23T22:57:31.925Z,12.05
2022-09-23T23:00:04.376Z,11.48
2022-09-23T23:02:36.872Z,16.48
2022-09-23T23:05:09.153Z,15.02
2022-09-23T23:07:41.864Z,20.35
2022-09-23T23:10:17.237Z,15.63
2022-09-23T23:12:52.285Z,15.13
2022-09-23T23:15:24.257Z,14.07
2022-09-23T23:17:57.368Z,14.57
2022-09-23T23:20:29.942Z,12.50
2022-09-23T23:23:02.439Z,11.75
2022-09-23T23:25:35.746Z,10.65
2022-09-23T23:28:07.859Z,11.10
2022-09-23T23:30:39.819Z,11.15
2022-09-23T23:33:11.767Z,12.05
2022-09-23T23:35:50.506Z,12.07
2022-09-23T23:38:23.046Z,10.93
2022-09-23T23:40:56.673Z,11.65
2022-09-23T23:43:28.754Z,11.07
2022-09-23T23:46:01.542Z,10.30
2022-09-23T23:48:34.820Z,10.55
2022-09-23T23:51:08.401Z,11.93
2022-09-23T23:53:41.426Z,10.82
2022-09-23T23:56:17.146Z,11.98
2022-09-23T23:58:53.820Z,8.93
